Time;durP1;ratioP1;P1;durP2;ratioP2;P2;SDS_P1;SDS_P2;PMS_P1;PMS_P2;Temp;Humidity;BMP_temperature;BMP_pressure;BME280_temperature;BME280_humidity;BME280_pressure;Samples;Min_cycle;Max_cycle;Signal;HPM_P1;HPM_P2
2023/03/26 00:00:54;;;;;;;2.70;1.15;;;12.00;99.90;;;;;;5033292;28;20033;-36
2023/03/26 00:03:21;;;;;;;2.33;1.33;;;12.00;99.90;;;;;;5034089;28;20021;-36
2023/03/26 00:05:48;;;;;;;3.55;1.10;;;12.00;99.90;;;;;;5031997;28;20514;-36
2023/03/26 00:08:15;;;;;;;3.47;1.30;;;12.00;99.90;;;;;;5033650;28;20029;-36
2023/03/26 00:10:43;;;;;;;5.22;1.65;;;12.00;99.90;;;;;;5032180;28;20444;-35
2023/03/26 00:13:09;;;;;;;3.95;1.63;;;12.00;99.90;;;;;;5033019;28;20025;-36
2023/03/26 00:15:37;;;;;;;4.05;1.52;;;12.00;99.90;;;;;;5031913;28;20469;-35
2023/03/26 00:18:03;;;;;;;4.53;1.50;;;12.00;99.90;;;;;;5034415;28;20035;-39
2023/03/26 00:20:31;;;;;;;3.65;1.27;;;11.90;99.90;;;;;;5031992;28;20392;-35
2023/03/26 00:23:00;;;;;;;4.78;1.52;;;11.90;99.90;;;;;;5033181;28;20522;-39
2023/03/26 00:25:26;;;;;;;3.75;1.45;;;11.90;99.90;;;;;;5032097;28;20029;-36
2023/03/26 00:27:52;;;;;;;4.10;1.25;;;11.90;99.90;;;;;;5032647;28;20028;-37
2023/03/26 00:30:18;;;;;;;2.58;1.25;;;11.90;99.90;;;;;;5032513;28;20037;-35
2023/03/26 00:32:44;;;;;;;3.63;1.15;;;11.90;99.90;;;;;;5033014;28;20041;-35
2023/03/26 00:35:10;;;;;;;3.42;1.30;;;11.90;99.90;;;;;;5031797;28;20097;-35
2023/03/26 00:37:36;;;;;;;2.03;1.02;;;11.90;99.90;;;;;;5031723;28;20048;-36
2023/03/26 00:40:06;;;;;;;2.67;1.40;;;11.90;99.90;;;;;;5032878;28;20038;-38
2023/03/26 00:42:32;;;;;;;2.10;1.08;;;11.90;99.90;;;;;;5032024;28;20017;-36
2023/03/26 00:44:57;;;;;;;3.95;1.30;;;12.00;99.90;;;;;;5031975;28;20047;-35
2023/03/26 00:47:25;;;;;;;2.53;1.08;;;11.90;99.90;;;;;;5031510;28;20183;-36
2023/03/26 00:49:50;;;;;;;5.35;1.35;;;11.90;99.90;;;;;;5033404;28;20033;-35
2023/03/26 00:52:19;;;;;;;3.70;1.20;;;11.90;99.90;;;;;;5032452;28;20029;-37
2023/03/26 00:54:46;;;;;;;3.30;1.20;;;11.90;99.90;;;;;;5032293;28;20032;-36
2023/03/26 00:57:13;;;;;;;3.65;1.40;;;11.90;99.90;;;;;;5030895;28;20036;-35
2023/03/26 00:59:40;;;;;;;4.88;1.48;;;11.90;99.90;;;;;;5033047;28;20089;-41
2023/03/26 01:02:09;;;;;;;3.55;1.15;;;11.90;99.90;;;;;;5031217;28;20025;-37
2023/03/26 01:04:36;;;;;;;3.78;1.60;;;11.90;99.90;;;;;;5032200;28;20020;-35
2023/03/26 01:07:08;;;;;;;4.47;1.48;;;11.90;99.90;;;;;;5031943;28;20103;-36
2023/03/26 01:09:36;;;;;;;3.97;1.20;;;11.90;99.90;;;;;;5032389;28;20025;-37
2023/03/26 01:12:06;;;;;;;3.45;1.33;;;11.90;99.90;;;;;;5031839;28;20388;-36
2023/03/26 01:14:31;;;;;;;2.13;0.98;;;11.90;99.90;;;;;;5031592;28;20025;-37
2023/03/26 01:17:00;;;;;;;2.88;1.25;;;11.90;99.90;;;;;;5031125;28;20029;-35
2023/03/26 01:19:47;;;;;;;5.35;1.20;;;11.90;99.90;;;;;;5032153;28;20017;-37
2023/03/26 01:22:19;;;;;;;5.13;1.38;;;11.90;99.90;;;;;;5032835;28;20033;-39
2023/03/26 01:24:51;;;;;;;4.93;1.38;;;11.90;99.90;;;;;;5032181;28;20064;-40
2023/03/26 01:27:37;;;;;;;2.72;1.13;;;11.90;99.90;;;;;;5030503;28;20558;-36
2023/03/26 01:30:03;;;;;;;3.45;1.40;;;11.90;99.90;;;;;;5031470;28;20029;-36
2023/03/26 01:32:56;;;;;;;2.13;1.13;;;11.90;99.90;;;;;;5032430;28;20057;-37
2023/03/26 01:35:25;;;;;;;3.67;1.30;;;11.80;99.90;;;;;;5031023;28;20057;-42
2023/03/26 01:38:00;;;;;;;4.07;1.48;;;11.80;99.90;;;;;;5031526;28;20033;-39
2023/03/26 01:41:08;;;;;;;4.22;1.23;;;11.80;99.90;;;;;;5032370;28;20097;-35
2023/03/26 01:44:11;;;;;;;3.22;1.17;;;11.80;99.90;;;;;;5012615;28;20052;-36
2023/03/26 01:46:38;;;;;;;3.42;1.17;;;11.80;99.90;;;;;;5031497;28;20140;-36
2023/03/26 01:49:05;;;;;;;3.10;1.20;;;11.80;99.90;;;;;;5030585;28;20025;-36
2023/03/26 01:51:33;;;;;;;3.47;1.20;;;11.80;99.90;;;;;;5030859;28;20053;-35
2023/03/26 01:54:02;;;;;;;3.38;1.13;;;11.80;99.90;;;;;;5031068;28;20013;-39
2023/03/26 01:56:57;;;;;;;2.70;1.13;;;11.80;99.90;;;;;;5031327;28;20014;-37
2023/03/26 01:59:28;;;;;;;2.97;1.17;;;11.80;99.90;;;;;;5023496;28;20083;-37
2023/03/26 02:02:10;;;;;;;1.92;0.95;;;11.80;99.90;;;;;;5035609;28;20045;-37
2023/03/26 02:04:52;;;;;;;3.38;1.00;;;11.80;99.90;;;;;;5035365;28;20029;-36
2023/03/26 02:07:50;;;;;;;4.55;1.13;;;11.80;99.90;;;;;;5034511;28;20017;-40
2023/03/26 02:10:26;;;;;;;3.38;1.10;;;11.80;99.90;;;;;;5022643;28;20076;-37
2023/03/26 02:12:52;;;;;;;3.80;1.15;;;11.80;99.90;;;;;;5034825;28;20442;-38
2023/03/26 02:15:18;;;;;;;5.18;1.20;;;11.80;99.90;;;;;;5035351;28;20026;-41
2023/03/26 02:17:44;;;;;;;3.67;1.20;;;11.80;99.90;;;;;;5034864;28;20104;-37
2023/03/26 02:20:13;;;;;;;2.85;1.13;;;11.80;99.90;;;;;;5035113;28;20100;-37
2023/03/26 02:22:44;;;;;;;3.55;1.17;;;11.80;99.90;;;;;;5034376;28;20068;-37
2023/03/26 02:25:13;;;;;;;4.88;1.25;;;11.80;99.90;;;;;;5035866;28;20018;-39
2023/03/26 02:27:40;;;;;;;3.40;1.20;;;11.80;99.90;;;;;;5033255;28;20053;-35
2023/03/26 02:30:08;;;;;;;2.47;1.10;;;11.80;99.90;;;;;;5033994;28;20087;-39
2023/03/26 02:32:35;;;;;;;5.53;1.42;;;11.70;99.90;;;;;;5034586;28;20025;-37
2023/03/26 02:35:01;;;;;;;2.35;1.10;;;11.80;99.90;;;;;;5034471;28;20112;-35
2023/03/26 02:37:29;;;;;;;3.42;1.17;;;11.70;99.90;;;;;;5033457;28;20115;-39
2023/03/26 02:39:55;;;;;;;2.65;1.23;;;11.70;99.90;;;;;;5035485;28;20380;-40
2023/03/26 02:42:20;;;;;;;3.53;1.50;;;11.70;99.90;;;;;;5035095;28;20022;-37
2023/03/26 02:44:46;;;;;;;4.22;1.15;;;11.70;99.90;;;;;;5035234;28;20037;-35
2023/03/26 02:47:12;;;;;;;2.63;1.27;;;11.70;99.90;;;;;;5033691;28;20033;-37
2023/03/26 02:49:37;;;;;;;3.33;1.00;;;11.70;99.90;;;;;;5033334;28;20030;-37
2023/03/26 02:52:05;;;;;;;2.85;1.02;;;11.70;99.90;;;;;;5034801;28;20030;-39
2023/03/26 02:54:33;;;;;;;3.60;1.23;;;11.70;99.90;;;;;;5033868;28;20034;-35
2023/03/26 02:56:58;;;;;;;4.78;1.15;;;11.70;99.90;;;;;;5035045;28;20052;-39
2023/03/26 02:59:24;;;;;;;3.42;1.23;;;11.70;99.90;;;;;;5034417;28;20061;-36
2023/03/26 03:01:50;;;;;;;3.92;1.13;;;11.70;99.90;;;;;;5034388;28;20040;-37
2023/03/26 03:04:16;;;;;;;2.83;1.02;;;11.70;99.90;;;;;;5035168;28;20091;-39
2023/03/26 03:06:43;;;;;;;3.50;1.17;;;11.70;99.90;;;;;;5033732;28;20574;-42
2023/03/26 03:09:09;;;;;;;2.47;1.08;;;11.70;99.90;;;;;;5034945;28;20376;-37
2023/03/26 03:11:36;;;;;;;5.90;1.25;;;11.70;99.90;;;;;;5034241;28;20021;-36
2023/03/26 03:14:02;;;;;;;2.38;0.98;;;11.70;99.90;;;;;;5032850;28;20030;-40
2023/03/26 03:16:29;;;;;;;3.47;1.05;;;11.70;99.90;;;;;;5033866;28;20370;-39
2023/03/26 03:18:55;;;;;;;4.13;1.20;;;11.80;99.90;;;;;;5033108;28;20078;-37
2023/03/26 03:21:22;;;;;;;2.42;0.85;;;11.70;99.90;;;;;;5033332;28;20065;-38
2023/03/26 03:23:48;;;;;;;4.70;1.00;;;11.70;99.90;;;;;;5033691;28;20021;-36
2023/03/26 03:26:16;;;;;;;3.80;1.10;;;11.70;99.90;;;;;;5033774;28;20028;-38
2023/03/26 03:28:43;;;;;;;4.50;0.90;;;11.70;99.90;;;;;;5033605;28;20562;-36
2023/03/26 03:31:09;;;;;;;2.65;1.10;;;11.70;99.90;;;;;;5033450;28;20037;-38
2023/03/26 03:33:35;;;;;;;4.00;1.23;;;11.70;99.90;;;;;;5032520;28;20030;-41
2023/03/26 03:36:09;;;;;;;3.85;1.20;;;11.70;99.90;;;;;;5032101;28;20102;-35
2023/03/26 03:38:38;;;;;;;3.78;1.10;;;11.70;99.90;;;;;;5032515;28;20026;-37
2023/03/26 03:41:04;;;;;;;2.03;0.95;;;11.70;99.90;;;;;;5032466;28;20029;-38
2023/03/26 03:43:31;;;;;;;3.35;1.20;;;11.70;99.90;;;;;;5032607;28;20068;-41
2023/03/26 03:45:57;;;;;;;3.38;0.93;;;11.70;99.90;;;;;;5032289;28;20053;-39
2023/03/26 03:48:23;;;;;;;3.75;1.40;;;11.70;99.90;;;;;;5032245;28;20093;-37
2023/03/26 03:50:48;;;;;;;4.05;1.05;;;11.70;99.90;;;;;;5032706;28;20065;-37
2023/03/26 03:53:14;;;;;;;3.65;1.00;;;11.70;99.90;;;;;;5032861;28;20025;-37
2023/03/26 03:55:41;;;;;;;2.75;1.02;;;11.70;99.90;;;;;;5033332;28;20029;-36
2023/03/26 03:58:08;;;;;;;3.47;1.05;;;11.70;99.90;;;;;;5032580;28;20033;-37
2023/03/26 04:00:37;;;;;;;4.22;1.10;;;11.70;99.90;;;;;;5033048;28;20029;-37
2023/03/26 04:03:05;;;;;;;3.38;1.10;;;11.70;99.90;;;;;;5032750;28;20080;-36
2023/03/26 04:05:31;;;;;;;3.65;1.08;;;11.60;99.90;;;;;;5032613;28;20028;-37
2023/03/26 04:07:58;;;;;;;3.00;0.90;;;11.60;99.90;;;;;;5032364;28;20030;-37
2023/03/26 04:10:24;;;;;;;3.22;1.10;;;11.70;99.90;;;;;;5033299;28;20033;-36
2023/03/26 04:12:50;;;;;;;3.40;1.05;;;11.60;99.90;;;;;;5033495;28;20021;-36
2023/03/26 04:15:16;;;;;;;1.65;0.98;;;11.60;99.90;;;;;;5032215;28;20029;-37
2023/03/26 04:17:42;;;;;;;2.35;1.10;;;11.60;99.90;;;;;;5031274;28;20040;-35
2023/03/26 04:20:14;;;;;;;0.85;0.60;;;11.60;99.90;;;;;;5031767;28;20026;-37
2023/03/26 04:22:41;;;;;;;3.67;0.90;;;11.60;99.90;;;;;;5031209;28;20029;-38
2023/03/26 04:25:08;;;;;;;2.13;0.77;;;11.60;99.90;;;;;;5031749;28;20300;-35
2023/03/26 04:27:35;;;;;;;2.28;0.85;;;11.60;99.90;;;;;;5031325;28;20501;-37
2023/03/26 04:30:04;;;;;;;2.92;1.10;;;11.60;99.90;;;;;;5031515;28;20438;-35
2023/03/26 04:32:32;;;;;;;3.63;1.10;;;11.60;99.90;;;;;;5031413;28;20022;-36
2023/03/26 04:35:02;;;;;;;1.83;0.90;;;11.60;99.90;;;;;;5033740;28;20018;-36
2023/03/26 04:37:35;;;;;;;4.18;1.35;;;11.60;99.90;;;;;;5031487;28;20041;-35
2023/03/26 04:40:08;;;;;;;2.67;0.93;;;11.60;99.90;;;;;;5033310;28;20111;-36
2023/03/26 04:42:36;;;;;;;1.92;0.77;;;11.60;99.90;;;;;;5034169;28;20053;-37
2023/03/26 04:45:05;;;;;;;2.50;0.93;;;11.60;99.90;;;;;;5034096;28;20017;-37
2023/03/26 04:47:35;;;;;;;2.25;0.80;;;11.60;99.90;;;;;;5031672;28;20124;-39
2023/03/26 04:50:02;;;;;;;3.92;1.20;;;11.60;99.90;;;;;;5033635;28;20061;-35
2023/03/26 04:52:28;;;;;;;2.97;0.98;;;11.60;99.90;;;;;;5033035;28;20009;-37
2023/03/26 04:54:54;;;;;;;2.60;1.00;;;11.60;99.90;;;;;;5031872;28;20104;-39
2023/03/26 04:57:28;;;;;;;4.35;1.25;;;11.60;99.90;;;;;;5031441;28;20057;-37
2023/03/26 04:59:53;;;;;;;1.88;0.90;;;11.60;99.90;;;;;;5031966;28;20017;-36
2023/03/26 05:02:19;;;;;;;5.15;1.30;;;11.60;99.90;;;;;;5030566;28;20483;-36
2023/03/26 05:04:45;;;;;;;2.63;0.77;;;11.70;99.90;;;;;;5031671;28;20021;-40
2023/03/26 05:07:18;;;;;;;3.42;1.05;;;12.00;99.90;;;;;;5031695;28;20037;-36
2023/03/26 05:09:44;;;;;;;4.65;1.08;;;12.10;99.90;;;;;;5033038;28;20026;-35
2023/03/26 05:12:10;;;;;;;4.00;1.10;;;12.10;99.90;;;;;;5033270;28;20459;-37
2023/03/26 05:14:36;;;;;;;4.95;1.10;;;12.10;99.90;;;;;;5031137;28;20025;-38
2023/03/26 05:17:09;;;;;;;4.05;1.30;;;12.00;99.90;;;;;;5030730;28;20578;-38
2023/03/26 05:19:36;;;;;;;4.00;1.00;;;12.00;99.90;;;;;;5032003;28;20030;-35
2023/03/26 05:22:02;;;;;;;3.30;0.90;;;12.00;99.90;;;;;;5030851;28;20033;-37
2023/03/26 05:24:27;;;;;;;3.75;1.30;;;12.00;99.90;;;;;;5031214;28;20026;-41
2023/03/26 05:26:54;;;;;;;3.17;1.00;;;11.90;99.90;;;;;;5030602;28;20021;-36
2023/03/26 05:29:21;;;;;;;3.63;1.08;;;11.90;99.90;;;;;;5030822;28;20054;-38
2023/03/26 05:31:47;;;;;;;2.85;1.10;;;11.90;99.90;;;;;;5031769;28;20021;-36
2023/03/26 05:34:13;;;;;;;3.83;0.90;;;11.90;99.90;;;;;;5035312;28;20045;-36
2023/03/26 05:36:41;;;;;;;3.70;1.00;;;11.90;99.90;;;;;;5036569;28;20025;-37
2023/03/26 05:39:07;;;;;;;2.83;0.90;;;11.80;99.90;;;;;;5035692;28;20103;-37
2023/03/26 05:41:33;;;;;;;6.03;1.00;;;11.90;99.90;;;;;;5035623;28;20084;-38
2023/03/26 05:43:59;;;;;;;3.85;1.13;;;11.80;99.90;;;;;;5034726;28;20025;-36
2023/03/26 05:46:26;;;;;;;4.65;1.20;;;11.80;99.90;;;;;;5034232;28;20021;-36
2023/03/26 05:48:52;;;;;;;3.85;1.10;;;11.80;99.90;;;;;;5036012;28;20044;-37
2023/03/26 05:51:22;;;;;;;3.50;1.10;;;11.90;99.90;;;;;;5035386;28;20052;-37
2023/03/26 05:53:48;;;;;;;3.42;1.10;;;11.80;99.90;;;;;;5035946;28;20025;-35
2023/03/26 05:56:13;;;;;;;2.67;1.05;;;11.80;99.90;;;;;;5035306;28;20091;-39
2023/03/26 05:58:40;;;;;;;5.03;1.30;;;11.90;99.90;;;;;;5034924;28;20030;-36
2023/03/26 06:01:09;;;;;;;3.42;1.10;;;11.80;99.90;;;;;;5035255;28;20483;-37
2023/03/26 06:03:37;;;;;;;4.15;1.30;;;11.80;99.90;;;;;;5035381;28;20041;-38
2023/03/26 06:06:14;;;;;;;3.85;1.70;;;11.80;99.90;;;;;;5034122;28;20025;-36
2023/03/26 06:08:41;;;;;;;4.18;1.10;;;11.80;99.90;;;;;;5034833;28;20025;-37
2023/03/26 06:11:11;;;;;;;4.30;1.20;;;11.70;99.90;;;;;;5035492;28;20049;-35
2023/03/26 06:13:37;;;;;;;3.83;1.10;;;11.70;99.90;;;;;;5034435;28;20018;-36
2023/03/26 06:16:03;;;;;;;2.25;1.00;;;11.70;99.90;;;;;;5034226;28;20438;-39
2023/03/26 06:18:29;;;;;;;3.45;0.85;;;11.70;99.90;;;;;;5034567;28;20026;-39
2023/03/26 06:20:54;;;;;;;4.30;1.08;;;11.70;99.90;;;;;;5034651;28;20125;-36
2023/03/26 06:23:22;;;;;;;4.20;1.38;;;11.60;99.90;;;;;;5034904;28;20383;-36
2023/03/26 06:25:47;;;;;;;4.47;1.05;;;11.60;99.90;;;;;;5035261;28;20014;-36
2023/03/26 06:28:14;;;;;;;4.03;1.23;;;11.60;99.90;;;;;;5033710;28;20032;-35
2023/03/26 06:30:40;;;;;;;4.60;1.13;;;11.60;99.90;;;;;;5033737;28;20086;-36
2023/03/26 06:33:06;;;;;;;3.83;1.15;;;11.60;99.90;;;;;;5035943;28;20475;-38
2023/03/26 06:35:32;;;;;;;3.65;1.27;;;11.60;99.90;;;;;;5036062;28;20120;-37
2023/03/26 06:37:58;;;;;;;3.67;1.38;;;11.60;99.90;;;;;;5035131;28;20037;-37
2023/03/26 06:40:24;;;;;;;1.70;0.98;;;11.60;99.90;;;;;;5034697;28;20021;-36
2023/03/26 06:42:50;;;;;;;4.20;1.15;;;11.50;99.90;;;;;;5034869;28;20096;-36
2023/03/26 06:45:16;;;;;;;3.35;1.00;;;11.50;99.90;;;;;;5032805;28;20105;-36
2023/03/26 06:47:41;;;;;;;3.58;1.13;;;11.50;99.90;;;;;;5033016;28;20108;-37
2023/03/26 06:50:08;;;;;;;4.78;1.60;;;11.50;99.90;;;;;;5034780;28;20025;-37
2023/03/26 06:52:34;;;;;;;3.45;1.60;;;11.50;99.90;;;;;;5033428;28;20028;-37
2023/03/26 06:54:59;;;;;;;3.80;1.25;;;11.50;99.90;;;;;;5033309;28;20383;-37
2023/03/26 06:57:25;;;;;;;2.58;1.20;;;11.60;99.90;;;;;;5032743;28;20033;-36
2023/03/26 06:59:51;;;;;;;2.45;1.20;;;11.50;99.90;;;;;;5033311;28;20029;-36
2023/03/26 07:02:17;;;;;;;4.30;1.30;;;11.50;99.90;;;;;;5032989;28;20113;-38
2023/03/26 07:04:42;;;;;;;3.35;1.23;;;11.50;99.90;;;;;;5035094;28;20028;-36
2023/03/26 07:07:08;;;;;;;4.82;1.30;;;11.50;99.90;;;;;;5033803;28;20021;-37
2023/03/26 07:09:34;;;;;;;3.90;1.55;;;11.50;99.90;;;;;;5035219;28;20033;-36
2023/03/26 07:12:00;;;;;;;5.18;1.27;;;11.50;99.90;;;;;;5033846;28;20032;-38
2023/03/26 07:14:29;;;;;;;2.22;0.98;;;11.50;99.90;;;;;;5033600;28;20032;-36
2023/03/26 07:16:56;;;;;;;6.00;1.30;;;11.50;99.90;;;;;;5033123;28;20052;-37
2023/03/26 07:19:22;;;;;;;3.33;1.33;;;11.50;99.90;;;;;;5034415;28;20032;-37
2023/03/26 07:21:49;;;;;;;2.88;1.30;;;11.50;99.90;;;;;;5033634;28;20454;-36
2023/03/26 07:24:15;;;;;;;3.78;1.23;;;11.50;99.90;;;;;;5034106;28;20022;-38
2023/03/26 07:26:44;;;;;;;3.63;1.30;;;11.50;99.90;;;;;;5033435;28;20029;-36
2023/03/26 07:29:22;;;;;;;5.13;1.45;;;11.50;99.90;;;;;;5034075;28;20502;-36
2023/03/26 07:31:56;;;;;;;4.63;1.38;;;11.50;99.90;;;;;;5034329;28;20021;-35
2023/03/26 07:34:57;;;;;;;3.42;1.38;;;11.50;99.90;;;;;;5034390;28;20104;-35
2023/03/26 07:37:47;;;;;;;6.93;1.35;;;11.50;99.90;;;;;;5030084;28;20171;-42
2023/03/26 07:40:24;;;;;;;6.10;1.45;;;11.50;99.90;;;;;;5034271;28;20060;-37
2023/03/26 07:43:05;;;;;;;4.60;1.13;;;11.50;99.90;;;;;;5032478;28;20028;-39
2023/03/26 07:45:42;;;;;;;2.13;1.25;;;11.50;99.90;;;;;;5032570;28;20087;-38
2023/03/26 07:48:24;;;;;;;3.75;1.30;;;11.50;99.90;;;;;;5032146;28;20506;-36
2023/03/26 07:50:50;;;;;;;4.03;1.30;;;11.50;99.90;;;;;;5033682;28;20033;-36
2023/03/26 07:53:16;;;;;;;2.95;1.27;;;11.50;99.90;;;;;;5032560;28;20373;-35
2023/03/26 07:56:01;;;;;;;4.18;1.30;;;11.50;99.90;;;;;;5032335;28;20040;-50
2023/03/26 07:58:57;;;;;;;4.43;1.20;;;11.50;99.90;;;;;;5032962;28;20029;-35
2023/03/26 08:01:58;;;;;;;3.17;1.10;;;11.50;99.90;;;;;;5032512;28;20483;-39
2023/03/26 08:04:53;;;;;;;3.83;1.00;;;11.50;99.90;;;;;;5023308;28;20043;-37
2023/03/26 08:07:50;;;;;;;3.33;1.38;;;11.40;99.90;;;;;;5032313;28;20052;-36
2023/03/26 08:11:06;;;;;;;2.65;1.25;;;11.40;99.90;;;;;;5032414;28;20057;-38
2023/03/26 08:13:57;;;;;;;4.22;1.10;;;11.50;99.90;;;;;;5010170;28;20034;-37
2023/03/26 08:16:26;;;;;;;3.10;1.10;;;11.40;99.90;;;;;;5033258;28;20033;-36
2023/03/26 08:19:07;;;;;;;2.47;1.05;;;11.40;99.90;;;;;;5032216;28;20021;-38
2023/03/26 08:21:56;;;;;;;4.15;1.48;;;11.40;99.90;;;;;;5032856;28;20028;-37
2023/03/26 08:24:31;;;;;;;4.13;1.40;;;11.40;99.90;;;;;;5033493;28;20026;-36
2023/03/26 08:27:20;;;;;;;3.75;1.33;;;11.40;99.90;;;;;;5032448;28;20430;-39
2023/03/26 08:30:01;;;;;;;3.58;1.40;;;11.40;99.90;;;;;;5032704;28;20036;-35
2023/03/26 08:32:27;;;;;;;5.90;1.20;;;11.40;99.90;;;;;;5032643;28;20079;-40
2023/03/26 08:34:52;;;;;;;5.47;1.63;;;11.40;99.90;;;;;;5033322;28;20041;-36
2023/03/26 08:37:18;;;;;;;3.10;1.20;;;11.40;99.90;;;;;;5032266;28;20025;-36
2023/03/26 08:39:43;;;;;;;3.53;1.10;;;11.40;99.90;;;;;;5031302;28;20025;-37
2023/03/26 08:42:15;;;;;;;3.08;1.50;;;11.40;99.90;;;;;;5032671;28;20026;-37
2023/03/26 08:45:06;;;;;;;3.72;1.20;;;11.40;99.90;;;;;;5031753;28;20097;-35
2023/03/26 08:47:35;;;;;;;4.47;1.10;;;11.50;99.90;;;;;;5032751;28;20484;-37
2023/03/26 08:50:09;;;;;;;4.35;1.50;;;11.40;99.90;;;;;;5032755;28;20029;-40
2023/03/26 08:53:06;;;;;;;2.53;1.10;;;11.40;99.90;;;;;;5032911;28;20431;-36
2023/03/26 08:56:07;;;;;;;4.10;1.30;;;11.50;99.90;;;;;;5032096;28;20057;-35
2023/03/26 08:58:39;;;;;;;4.07;1.42;;;11.40;99.90;;;;;;5031744;28;20067;-38
2023/03/26 09:01:23;;;;;;;4.65;1.50;;;11.40;99.90;;;;;;5032843;28;20025;-39
2023/03/26 09:04:14;;;;;;;4.43;1.13;;;11.50;99.90;;;;;;5032227;28;20091;-37
2023/03/26 09:07:18;;;;;;;2.92;0.98;;;11.40;99.90;;;;;;5030376;28;20049;-37
2023/03/26 09:10:05;;;;;;;3.33;1.30;;;11.40;99.90;;;;;;5032068;28;20506;-36
2023/03/26 09:12:46;;;;;;;4.85;1.30;;;11.50;99.90;;;;;;5032409;28;20033;-37
2023/03/26 09:15:49;;;;;;;3.85;1.45;;;11.50;99.90;;;;;;5032597;28;20514;-35
2023/03/26 09:18:49;;;;;;;5.30;1.42;;;11.50;99.90;;;;;;5032597;28;20463;-36
2023/03/26 09:21:33;;;;;;;4.78;1.83;;;11.50;99.90;;;;;;5033361;28;20114;-40
2023/03/26 09:24:26;;;;;;;2.70;0.93;;;11.50;99.90;;;;;;5032382;28;20124;-37
2023/03/26 09:27:14;;;;;;;1.27;0.90;;;11.50;99.90;;;;;;5032226;28;20037;-35
2023/03/26 09:30:21;;;;;;;3.63;1.40;;;11.50;99.90;;;;;;5031690;28;20090;-38
2023/03/26 09:33:08;;;;;;;2.97;1.27;;;11.50;99.90;;;;;;5033050;28;20026;-35
2023/03/26 09:35:43;;;;;;;2.75;1.05;;;11.50;99.90;;;;;;5032280;28;20446;-39
2023/03/26 09:38:31;;;;;;;3.70;1.05;;;11.50;99.90;;;;;;5030789;28;20029;-42
2023/03/26 09:41:07;;;;;;;4.55;1.13;;;11.50;99.90;;;;;;5028592;28;20076;-37
2023/03/26 09:43:51;;;;;;;2.53;0.90;;;11.60;99.90;;;;;;5031729;28;20487;-35
2023/03/26 09:46:52;;;;;;;2.53;0.98;;;11.50;99.90;;;;;;5030930;28;20400;-37
2023/03/26 09:49:39;;;;;;;3.22;1.10;;;11.60;99.90;;;;;;5032199;28;20022;-37
2023/03/26 09:52:26;;;;;;;2.67;1.10;;;11.60;99.90;;;;;;5030657;28;20021;-39
2023/03/26 09:54:57;;;;;;;2.53;1.02;;;11.60;99.90;;;;;;5033247;28;20251;-36
2023/03/26 09:57:45;;;;;;;1.75;1.10;;;11.70;99.90;;;;;;5031184;28;20478;-38
2023/03/26 10:00:29;;;;;;;1.95;1.00;;;11.70;99.90;;;;;;5032250;28;20029;-39
2023/03/26 10:03:08;;;;;;;2.65;1.10;;;11.70;99.90;;;;;;5031634;28;20057;-36
2023/03/26 10:05:51;;;;;;;2.08;0.80;;;11.70;99.90;;;;;;5031044;28;20389;-35
2023/03/26 10:08:51;;;;;;;2.30;1.15;;;11.70;99.90;;;;;;5032148;28;20030;-36
2023/03/26 10:11:39;;;;;;;2.33;0.90;;;11.70;99.90;;;;;;5031711;28;20040;-39
2023/03/26 10:14:39;;;;;;;1.25;0.90;;;11.70;99.90;;;;;;5030763;28;20025;-36
2023/03/26 10:17:10;;;;;;;2.20;1.13;;;11.80;99.90;;;;;;5031491;28;20045;-37
2023/03/26 10:20:08;;;;;;;3.13;0.82;;;11.80;99.90;;;;;;5032368;28;20079;-39
2023/03/26 10:22:54;;;;;;;2.30;1.30;;;11.80;99.90;;;;;;5027010;28;20029;-37
2023/03/26 10:25:45;;;;;;;1.75;1.00;;;11.90;99.90;;;;;;5033827;28;20027;-36
2023/03/26 10:28:32;;;;;;;2.03;0.90;;;11.90;99.90;;;;;;5033102;28;20389;-34
2023/03/26 10:31:22;;;;;;;3.45;1.10;;;11.90;99.90;;;;;;5035525;28;20025;-37
2023/03/26 10:34:29;;;;;;;2.08;0.80;;;11.90;99.90;;;;;;5034362;28;20454;-35
2023/03/26 10:37:30;;;;;;;1.58;0.70;;;11.90;99.90;;;;;;5034455;28;20053;-37
2023/03/26 10:40:17;;;;;;;1.90;0.80;;;11.90;99.90;;;;;;5033749;28;20490;-37
2023/03/26 10:43:12;;;;;;;3.15;1.10;;;11.90;99.90;;;;;;5034237;28;20030;-39
2023/03/26 10:46:11;;;;;;;2.28;0.98;;;11.90;99.90;;;;;;5034374;28;20117;-37
2023/03/26 10:49:11;;;;;;;3.10;1.00;;;11.90;99.90;;;;;;5034088;28;20032;-37
2023/03/26 10:51:47;;;;;;;1.63;0.85;;;11.90;99.90;;;;;;5034955;28;20021;-35
2023/03/26 10:54:36;;;;;;;2.35;0.98;;;12.00;99.90;;;;;;5035336;28;20422;-37
2023/03/26 10:57:11;;;;;;;1.48;0.80;;;12.00;99.90;;;;;;5033044;28;20052;-36
2023/03/26 10:59:37;;;;;;;2.92;1.00;;;12.00;99.90;;;;;;5035120;28;20037;-36
2023/03/26 11:02:05;;;;;;;1.85;0.85;;;12.00;99.90;;;;;;5034533;28;20365;-37
2023/03/26 11:04:55;;;;;;;2.20;0.90;;;12.00;99.90;;;;;;5035457;28;20056;-36
2023/03/26 11:07:31;;;;;;;2.45;0.93;;;12.00;99.90;;;;;;5034436;28;20532;-35
2023/03/26 11:10:09;;;;;;;2.75;0.63;;;12.00;99.90;;;;;;5035057;28;20044;-36
2023/03/26 11:13:05;;;;;;;1.83;0.70;;;12.00;99.90;;;;;;5033020;28;20506;-36
2023/03/26 11:15:42;;;;;;;2.08;0.75;;;12.00;99.90;;;;;;5032924;28;20051;-36
2023/03/26 11:18:27;;;;;;;1.30;0.75;;;12.10;99.90;;;;;;5034386;28;20022;-39
2023/03/26 11:21:11;;;;;;;0.98;0.50;;;12.10;99.90;;;;;;5033780;28;20108;-37
2023/03/26 11:23:46;;;;;;;1.95;0.77;;;12.10;99.90;;;;;;5032900;28;20064;-39
2023/03/26 11:26:25;;;;;;;3.15;1.15;;;12.10;99.90;;;;;;5032473;28;20117;-38
2023/03/26 11:29:19;;;;;;;1.63;0.82;;;12.10;99.90;;;;;;5033068;28;20509;-36
2023/03/26 11:31:47;;;;;;;1.77;0.73;;;12.10;99.90;;;;;;5032683;28;20404;-38
2023/03/26 11:34:17;;;;;;;2.50;0.60;;;12.20;99.90;;;;;;5033249;28;20025;-36
2023/03/26 11:36:48;;;;;;;1.65;0.77;;;12.20;99.90;;;;;;5033253;28;20030;-36
2023/03/26 11:39:21;;;;;;;1.73;0.70;;;12.20;99.90;;;;;;5033565;28;20034;-35
2023/03/26 11:41:51;;;;;;;2.00;0.70;;;12.20;99.90;;;;;;5033528;28;20025;-36
2023/03/26 11:44:31;;;;;;;2.13;0.70;;;12.20;99.90;;;;;;5032754;28;20503;-35
2023/03/26 11:47:03;;;;;;;1.65;0.70;;;12.30;99.90;;;;;;5033790;28;20026;-38
2023/03/26 11:49:29;;;;;;;2.75;1.00;;;12.30;99.90;;;;;;5034045;28;20028;-36
2023/03/26 11:51:55;;;;;;;3.40;0.93;;;12.30;99.90;;;;;;5033366;28;20100;-36
2023/03/26 11:54:21;;;;;;;4.20;0.90;;;12.20;99.90;;;;;;5034519;28;20123;-35
2023/03/26 11:56:56;;;;;;;1.42;0.50;;;12.30;99.90;;;;;;5033985;28;20017;-39
2023/03/26 11:59:53;;;;;;;1.15;0.73;;;12.30;99.90;;;;;;5032516;28;20041;-39
2023/03/26 12:02:32;;;;;;;1.13;0.77;;;12.20;99.90;;;;;;5029734;28;20049;-42
2023/03/26 12:05:11;;;;;;;1.05;0.70;;;12.20;99.90;;;;;;5032153;28;20033;-37
2023/03/26 12:08:00;;;;;;;1.15;0.60;;;12.30;99.90;;;;;;5032597;28;20028;-35
2023/03/26 12:10:36;;;;;;;1.67;0.60;;;12.30;99.90;;;;;;5032096;28;20058;-36
2023/03/26 12:13:21;;;;;;;2.40;0.70;;;12.30;99.90;;;;;;5031819;28;20037;-37
2023/03/26 12:15:48;;;;;;;3.42;0.82;;;12.30;99.90;;;;;;5031806;28;20033;-36
2023/03/26 12:18:22;;;;;;;2.50;0.80;;;12.40;99.90;;;;;;5031582;28;20029;-36
2023/03/26 12:21:00;;;;;;;3.10;0.70;;;12.40;99.90;;;;;;5031872;28;20025;-36
2023/03/26 12:23:37;;;;;;;2.33;0.82;;;12.40;99.90;;;;;;5031751;28;20018;-37
2023/03/26 12:26:45;;;;;;;2.88;1.02;;;12.40;99.90;;;;;;5031476;28;20060;-36
2023/03/26 12:29:16;;;;;;;2.85;0.80;;;12.40;99.90;;;;;;5029616;28;20031;-36
2023/03/26 12:31:49;;;;;;;0.85;0.50;;;12.40;99.90;;;;;;5031617;28;20029;-36
2023/03/26 12:34:17;;;;;;;1.45;0.57;;;12.40;99.90;;;;;;5030643;28;20029;-38
2023/03/26 12:36:55;;;;;;;1.98;0.77;;;12.40;99.90;;;;;;5031355;28;20098;-39
2023/03/26 12:39:31;;;;;;;1.52;0.60;;;12.40;99.90;;;;;;5031415;28;20111;-38
2023/03/26 12:41:59;;;;;;;2.22;0.73;;;12.40;99.90;;;;;;5031539;28;20055;-35
2023/03/26 12:44:32;;;;;;;1.40;0.60;;;12.40;99.90;;;;;;5031928;28;20022;-36
2023/03/26 12:47:24;;;;;;;1.92;0.75;;;12.40;99.90;;;;;;5031000;28;20029;-42
2023/03/26 12:49:51;;;;;;;1.20;0.60;;;12.40;99.90;;;;;;5032139;28;20025;-35
2023/03/26 12:52:26;;;;;;;1.92;0.60;;;12.30;99.90;;;;;;5031837;28;20021;-36
2023/03/26 12:55:29;;;;;;;2.22;0.70;;;12.40;99.90;;;;;;5031546;28;20354;-39
2023/03/26 12:58:21;;;;;;;1.70;0.98;;;12.40;99.90;;;;;;5010800;28;20492;-37
2023/03/26 13:01:21;;;;;;;1.42;0.63;;;12.40;99.90;;;;;;5031638;28;20049;-40
2023/03/26 13:04:08;;;;;;;1.83;0.60;;;12.40;99.90;;;;;;5030116;28;20041;-37
2023/03/26 13:06:54;;;;;;;2.22;0.68;;;12.40;99.90;;;;;;5030567;28;20067;-35
2023/03/26 13:09:36;;;;;;;1.60;0.90;;;12.40;99.90;;;;;;5031019;28;20492;-36
2023/03/26 13:12:28;;;;;;;2.58;0.60;;;12.40;99.90;;;;;;5031225;28;20037;-38
2023/03/26 13:15:15;;;;;;;2.67;0.60;;;12.40;99.90;;;;;;5030985;28;20075;-36
2023/03/26 13:18:03;;;;;;;1.73;0.68;;;12.40;99.90;;;;;;5030613;28;20395;-36
2023/03/26 13:20:47;;;;;;;1.42;0.70;;;12.40;99.90;;;;;;5031216;28;20023;-36
2023/03/26 13:23:20;;;;;;;2.42;0.65;;;12.40;99.90;;;;;;5031148;28;20143;-39
2023/03/26 13:26:09;;;;;;;1.67;0.60;;;12.40;99.90;;;;;;5030788;28;20096;-36